sensor_id;sensor_type;location;lat;lon;timestamp;temperature;humidity
20416;DHT22;10367;52.202;5.996;2023-04-20T00:01:14;6.20;76.90
20416;DHT22;10367;52.202;5.996;2023-04-20T00:03:43;6.20;76.90
20416;DHT22;10367;52.202;5.996;2023-04-20T00:06:18;6.20;76.90
20416;DHT22;10367;52.202;5.996;2023-04-20T00:08:51;6.10;76.90
20416;DHT22;10367;52.202;5.996;2023-04-20T00:11:32;6.10;77.20
20416;DHT22;10367;52.202;5.996;2023-04-20T00:14:07;6.10;77.50
20416;DHT22;10367;52.202;5.996;2023-04-20T00:16:36;6.10;77.40
20416;DHT22;10367;52.202;5.996;2023-04-20T00:19:08;6.10;77.50
20416;DHT22;10367;52.202;5.996;2023-04-20T00:21:38;6.10;78.00
20416;DHT22;10367;52.202;5.996;2023-04-20T00:24:11;6.10;77.90
20416;DHT22;10367;52.202;5.996;2023-04-20T00:26:47;6.10;77.90
20416;DHT22;10367;52.202;5.996;2023-04-20T00:29:19;6.10;77.80
20416;DHT22;10367;52.202;5.996;2023-04-20T00:31:53;6.10;78.00
20416;DHT22;10367;52.202;5.996;2023-04-20T00:34:25;6.30;78.00
20416;DHT22;10367;52.202;5.996;2023-04-20T00:36:53;6.40;78.20
20416;DHT22;10367;52.202;5.996;2023-04-20T00:39:22;6.50;78.10
20416;DHT22;10367;52.202;5.996;2023-04-20T00:41:52;6.60;78.00
20416;DHT22;10367;52.202;5.996;2023-04-20T00:44:21;6.70;78.40
20416;DHT22;10367;52.202;5.996;2023-04-20T00:46:52;6.70;78.30
20416;DHT22;10367;52.202;5.996;2023-04-20T00:49:28;6.80;78.30
20416;DHT22;10367;52.202;5.996;2023-04-20T00:52:00;6.90;78.40
20416;DHT22;10367;52.202;5.996;2023-04-20T00:54:31;6.90;78.50
20416;DHT22;10367;52.202;5.996;2023-04-20T00:57:03;6.90;78.60
20416;DHT22;10367;52.202;5.996;2023-04-20T00:59:45;7.00;78.70
20416;DHT22;10367;52.202;5.996;2023-04-20T01:02:14;7.00;78.80
20416;DHT22;10367;52.202;5.996;2023-04-20T01:04:45;7.00;79.10
20416;DHT22;10367;52.202;5.996;2023-04-20T01:07:14;7.10;79.10
20416;DHT22;10367;52.202;5.996;2023-04-20T01:09:43;7.10;79.20
20416;DHT22;10367;52.202;5.996;2023-04-20T01:12:14;7.20;79.60
20416;DHT22;10367;52.202;5.996;2023-04-20T01:14:50;7.20;79.70
20416;DHT22;10367;52.202;5.996;2023-04-20T01:17:19;7.20;80.10
20416;DHT22;10367;52.202;5.996;2023-04-20T01:19:50;7.20;80.20
20416;DHT22;10367;52.202;5.996;2023-04-20T01:22:23;7.20;80.50
20416;DHT22;10367;52.202;5.996;2023-04-20T01:24:52;7.20;81.70
20416;DHT22;10367;52.202;5.996;2023-04-20T01:27:24;7.20;81.30
20416;DHT22;10367;52.202;5.996;2023-04-20T01:29:55;7.10;81.80
20416;DHT22;10367;52.202;5.996;2023-04-20T01:32:26;7.00;82.10
20416;DHT22;10367;52.202;5.996;2023-04-20T01:34:58;7.00;82.80
20416;DHT22;10367;52.202;5.996;2023-04-20T01:37:36;7.00;83.10
20416;DHT22;10367;52.202;5.996;2023-04-20T01:40:09;6.90;83.70
20416;DHT22;10367;52.202;5.996;2023-04-20T01:42:48;6.90;83.90
20416;DHT22;10367;52.202;5.996;2023-04-20T01:45:17;6.90;84.80
20416;DHT22;10367;52.202;5.996;2023-04-20T01:47:54;6.90;84.50
20416;DHT22;10367;52.202;5.996;2023-04-20T01:50:30;6.90;85.00
20416;DHT22;10367;52.202;5.996;2023-04-20T01:53:04;6.90;85.40
20416;DHT22;10367;52.202;5.996;2023-04-20T01:55:35;6.90;85.70
20416;DHT22;10367;52.202;5.996;2023-04-20T01:58:13;6.90;86.00
20416;DHT22;10367;52.202;5.996;2023-04-20T02:00:43;6.80;86.00
20416;DHT22;10367;52.202;5.996;2023-04-20T02:03:17;6.90;86.10
20416;DHT22;10367;52.202;5.996;2023-04-20T02:05:55;6.90;86.40
20416;DHT22;10367;52.202;5.996;2023-04-20T02:08:32;6.90;86.90
20416;DHT22;10367;52.202;5.996;2023-04-20T02:11:06;6.90;87.70
20416;DHT22;10367;52.202;5.996;2023-04-20T02:13:35;7.00;87.30
20416;DHT22;10367;52.202;5.996;2023-04-20T02:16:07;7.10;87.40
20416;DHT22;10367;52.202;5.996;2023-04-20T02:18:36;7.20;87.30
20416;DHT22;10367;52.202;5.996;2023-04-20T02:21:05;7.20;87.80
20416;DHT22;10367;52.202;5.996;2023-04-20T02:23:36;7.30;87.70
20416;DHT22;10367;52.202;5.996;2023-04-20T02:26:04;7.30;87.80
20416;DHT22;10367;52.202;5.996;2023-04-20T02:28:36;7.40;88.60
20416;DHT22;10367;52.202;5.996;2023-04-20T02:31:05;7.40;88.60
20416;DHT22;10367;52.202;5.996;2023-04-20T02:33:39;7.50;89.30
20416;DHT22;10367;52.202;5.996;2023-04-20T02:36:11;7.50;89.10
20416;DHT22;10367;52.202;5.996;2023-04-20T02:38:46;7.60;89.30
20416;DHT22;10367;52.202;5.996;2023-04-20T02:41:15;7.60;89.30
20416;DHT22;10367;52.202;5.996;2023-04-20T02:43:44;7.60;89.60
20416;DHT22;10367;52.202;5.996;2023-04-20T02:46:14;7.70;89.80
20416;DHT22;10367;52.202;5.996;2023-04-20T02:48:45;7.70;89.90
20416;DHT22;10367;52.202;5.996;2023-04-20T02:51:30;7.70;90.30
20416;DHT22;10367;52.202;5.996;2023-04-20T02:54:03;7.80;90.20
20416;DHT22;10367;52.202;5.996;2023-04-20T02:56:33;7.80;90.40
20416;DHT22;10367;52.202;5.996;2023-04-20T02:59:02;7.80;90.30
20416;DHT22;10367;52.202;5.996;2023-04-20T03:01:31;7.80;90.40
20416;DHT22;10367;52.202;5.996;2023-04-20T03:04:02;7.80;90.50
20416;DHT22;10367;52.202;5.996;2023-04-20T03:06:32;7.80;90.60
20416;DHT22;10367;52.202;5.996;2023-04-20T03:09:10;7.80;90.70
20416;DHT22;10367;52.202;5.996;2023-04-20T03:11:46;7.80;90.80
20416;DHT22;10367;52.202;5.996;2023-04-20T03:14:17;7.80;91.00
20416;DHT22;10367;52.202;5.996;2023-04-20T03:16:49;7.80;91.30
20416;DHT22;10367;52.202;5.996;2023-04-20T03:19:20;7.80;91.30
20416;DHT22;10367;52.202;5.996;2023-04-20T03:22:01;7.80;91.40
20416;DHT22;10367;52.202;5.996;2023-04-20T03:24:36;7.80;91.40
20416;DHT22;10367;52.202;5.996;2023-04-20T03:27:06;7.80;91.40
20416;DHT22;10367;52.202;5.996;2023-04-20T03:29:37;7.90;91.60
20416;DHT22;10367;52.202;5.996;2023-04-20T03:32:06;7.90;91.60
20416;DHT22;10367;52.202;5.996;2023-04-20T03:34:38;7.80;91.80
20416;DHT22;10367;52.202;5.996;2023-04-20T03:37:09;7.90;91.90
20416;DHT22;10367;52.202;5.996;2023-04-20T03:39:46;7.90;92.10
20416;DHT22;10367;52.202;5.996;2023-04-20T03:42:24;7.90;92.20
20416;DHT22;10367;52.202;5.996;2023-04-20T03:44:57;7.90;92.20
20416;DHT22;10367;52.202;5.996;2023-04-20T03:47:29;7.90;92.30
20416;DHT22;10367;52.202;5.996;2023-04-20T03:50:01;7.90;92.40
20416;DHT22;10367;52.202;5.996;2023-04-20T03:52:33;7.90;92.50
20416;DHT22;10367;52.202;5.996;2023-04-20T03:55:03;7.90;92.60
20416;DHT22;10367;52.202;5.996;2023-04-20T03:57:33;7.90;92.70
20416;DHT22;10367;52.202;5.996;2023-04-20T04:00:02;7.90;92.80
20416;DHT22;10367;52.202;5.996;2023-04-20T04:02:31;7.90;93.00
20416;DHT22;10367;52.202;5.996;2023-04-20T04:05:05;7.90;93.10
20416;DHT22;10367;52.202;5.996;2023-04-20T04:07:34;7.90;93.20
20416;DHT22;10367;52.202;5.996;2023-04-20T04:10:05;7.90;93.40
20416;DHT22;10367;52.202;5.996;2023-04-20T04:12:33;7.90;93.60
20416;DHT22;10367;52.202;5.996;2023-04-20T04:15:03;7.80;93.80
20416;DHT22;10367;52.202;5.996;2023-04-20T04:17:32;7.80;94.00
20416;DHT22;10367;52.202;5.996;2023-04-20T04:20:01;7.80;94.10
20416;DHT22;10367;52.202;5.996;2023-04-20T04:22:36;7.80;94.30
20416;DHT22;10367;52.202;5.996;2023-04-20T04:25:09;7.80;94.50
20416;DHT22;10367;52.202;5.996;2023-04-20T04:27:39;7.70;94.60
20416;DHT22;10367;52.202;5.996;2023-04-20T04:30:09;7.80;94.80
20416;DHT22;10367;52.202;5.996;2023-04-20T04:32:38;7.70;95.00
20416;DHT22;10367;52.202;5.996;2023-04-20T04:35:10;7.80;95.20
20416;DHT22;10367;52.202;5.996;2023-04-20T04:37:38;7.80;95.50
20416;DHT22;10367;52.202;5.996;2023-04-20T04:40:12;7.80;95.70
20416;DHT22;10367;52.202;5.996;2023-04-20T04:42:41;7.80;96.10
20416;DHT22;10367;52.202;5.996;2023-04-20T04:45:28;7.80;96.10
20416;DHT22;10367;52.202;5.996;2023-04-20T04:48:07;7.80;96.30
20416;DHT22;10367;52.202;5.996;2023-04-20T04:50:39;7.70;96.50
20416;DHT22;10367;52.202;5.996;2023-04-20T04:53:09;7.70;96.80
20416;DHT22;10367;52.202;5.996;2023-04-20T04:55:44;7.70;97.10
20416;DHT22;10367;52.202;5.996;2023-04-20T04:58:16;7.70;97.30
20416;DHT22;10367;52.202;5.996;2023-04-20T05:00:45;7.70;98.00
20416;DHT22;10367;52.202;5.996;2023-04-20T05:03:19;7.70;98.40
20416;DHT22;10367;52.202;5.996;2023-04-20T05:05:52;7.80;98.70
20416;DHT22;10367;52.202;5.996;2023-04-20T05:08:23;7.70;98.80
20416;DHT22;10367;52.202;5.996;2023-04-20T05:10:57;7.70;99.40
20416;DHT22;10367;52.202;5.996;2023-04-20T05:13:26;7.80;99.50
20416;DHT22;10367;52.202;5.996;2023-04-20T05:15:58;7.80;99.90
20416;DHT22;10367;52.202;5.996;2023-04-20T05:18:29;7.80;99.90
20416;DHT22;10367;52.202;5.996;2023-04-20T05:20:58;7.80;99.90
20416;DHT22;10367;52.202;5.996;2023-04-20T05:23:27;7.80;99.90
20416;DHT22;10367;52.202;5.996;2023-04-20T05:25:57;7.80;99.90
20416;DHT22;10367;52.202;5.996;2023-04-20T05:28:26;7.80;99.90
20416;DHT22;10367;52.202;5.996;2023-04-20T05:30:56;7.90;99.90
20416;DHT22;10367;52.202;5.996;2023-04-20T05:33:28;7.90;99.90
20416;DHT22;10367;52.202;5.996;2023-04-20T05:35:59;8.00;99.90
20416;DHT22;10367;52.202;5.996;2023-04-20T05:38:29;8.00;99.90
20416;DHT22;10367;52.202;5.996;2023-04-20T05:41:00;8.00;99.90
20416;DHT22;10367;52.202;5.996;2023-04-20T05:43:29;8.00;99.90
20416;DHT22;10367;52.202;5.996;2023-04-20T05:45:59;8.10;99.90
20416;DHT22;10367;52.202;5.996;2023-04-20T05:48:28;8.10;99.90
20416;DHT22;10367;52.202;5.996;2023-04-20T05:50:57;8.20;99.90
20416;DHT22;10367;52.202;5.996;2023-04-20T05:53:26;8.20;99.90
20416;DHT22;10367;52.202;5.996;2023-04-20T05:55:55;8.30;99.90
20416;DHT22;10367;52.202;5.996;2023-04-20T05:58:27;8.30;99.90
20416;DHT22;10367;52.202;5.996;2023-04-20T06:00:57;8.40;99.90
20416;DHT22;10367;52.202;5.996;2023-04-20T06:03:25;8.50;99.90
20416;DHT22;10367;52.202;5.996;2023-04-20T06:05:56;8.50;99.90
20416;DHT22;10367;52.202;5.996;2023-04-20T06:08:25;8.60;99.90
20416;DHT22;10367;52.202;5.996;2023-04-20T06:10:56;8.60;99.90
20416;DHT22;10367;52.202;5.996;2023-04-20T06:13:27;8.60;99.90
20416;DHT22;10367;52.202;5.996;2023-04-20T06:15:57;8.60;99.90
20416;DHT22;10367;52.202;5.996;2023-04-20T06:18:26;8.60;99.90
20416;DHT22;10367;52.202;5.996;2023-04-20T06:20:55;8.60;99.90
20416;DHT22;10367;52.202;5.996;2023-04-20T06:23:29;8.60;99.90
20416;DHT22;10367;52.202;5.996;2023-04-20T06:25:58;8.60;99.90
20416;DHT22;10367;52.202;5.996;2023-04-20T06:28:30;8.60;99.90
20416;DHT22;10367;52.202;5.996;2023-04-20T06:31:02;8.50;99.90
20416;DHT22;10367;52.202;5.996;2023-04-20T06:33:34;8.50;99.90
20416;DHT22;10367;52.202;5.996;2023-04-20T06:36:08;8.50;99.90
20416;DHT22;10367;52.202;5.996;2023-04-20T06:38:48;8.40;99.90
20416;DHT22;10367;52.202;5.996;2023-04-20T06:41:19;8.30;99.90
20416;DHT22;10367;52.202;5.996;2023-04-20T06:43:49;8.20;99.90
20416;DHT22;10367;52.202;5.996;2023-04-20T06:46:18;8.30;99.90
20416;DHT22;10367;52.202;5.996;2023-04-20T06:48:50;8.20;99.90
20416;DHT22;10367;52.202;5.996;2023-04-20T06:51:19;8.20;99.90
20416;DHT22;10367;52.202;5.996;2023-04-20T06:53:48;8.10;99.90
20416;DHT22;10367;52.202;5.996;2023-04-20T06:56:17;8.10;99.90
20416;DHT22;10367;52.202;5.996;2023-04-20T06:58:50;8.10;99.90
20416;DHT22;10367;52.202;5.996;2023-04-20T07:01:18;8.20;99.90
20416;DHT22;10367;52.202;5.996;2023-04-20T07:03:48;8.20;99.90
20416;DHT22;10367;52.202;5.996;2023-04-20T07:06:17;8.10;99.90
20416;DHT22;10367;52.202;5.996;2023-04-20T07:08:45;8.10;99.90
20416;DHT22;10367;52.202;5.996;2023-04-20T07:11:16;8.10;99.90
20416;DHT22;10367;52.202;5.996;2023-04-20T07:13:45;8.10;99.90
20416;DHT22;10367;52.202;5.996;2023-04-20T07:16:18;8.10;99.90
20416;DHT22;10367;52.202;5.996;2023-04-20T07:18:47;8.00;99.90
20416;DHT22;10367;52.202;5.996;2023-04-20T07:21:16;7.90;99.90
20416;DHT22;10367;52.202;5.996;2023-04-20T07:23:45;7.90;99.90
20416;DHT22;10367;52.202;5.996;2023-04-20T07:26:17;8.00;99.90
20416;DHT22;10367;52.202;5.996;2023-04-20T07:28:46;8.10;99.90
20416;DHT22;10367;52.202;5.996;2023-04-20T07:31:16;8.20;99.90
20416;DHT22;10367;52.202;5.996;2023-04-20T07:33:48;8.40;99.90
20416;DHT22;10367;52.202;5.996;2023-04-20T07:36:20;8.30;99.90
20416;DHT22;10367;52.202;5.996;2023-04-20T07:38:49;8.40;99.90
20416;DHT22;10367;52.202;5.996;2023-04-20T07:41:17;8.50;99.90
20416;DHT22;10367;52.202;5.996;2023-04-20T07:43:49;8.60;99.90
20416;DHT22;10367;52.202;5.996;2023-04-20T07:46:22;8.70;99.90
20416;DHT22;10367;52.202;5.996;2023-04-20T07:48:51;8.60;99.90
20416;DHT22;10367;52.202;5.996;2023-04-20T07:51:20;8.60;99.90
20416;DHT22;10367;52.202;5.996;2023-04-20T07:53:49;8.60;99.90
20416;DHT22;10367;52.202;5.996;2023-04-20T07:56:18;8.50;99.90
20416;DHT22;10367;52.202;5.996;2023-04-20T07:58:47;8.40;99.90
20416;DHT22;10367;52.202;5.996;2023-04-20T08:01:16;8.30;99.90
20416;DHT22;10367;52.202;5.996;2023-04-20T08:03:51;8.40;99.90
20416;DHT22;10367;52.202;5.996;2023-04-20T08:06:22;8.30;99.90
20416;DHT22;10367;52.202;5.996;2023-04-20T08:08:51;8.20;99.90
20416;DHT22;10367;52.202;5.996;2023-04-20T08:11:19;8.20;99.90
20416;DHT22;10367;52.202;5.996;2023-04-20T08:13:50;8.20;99.90
20416;DHT22;10367;52.202;5.996;2023-04-20T08:16:19;8.10;99.90
20416;DHT22;10367;52.202;5.996;2023-04-20T08:18:49;8.20;99.90
20416;DHT22;10367;52.202;5.996;2023-04-20T08:21:18;8.30;99.90
20416;DHT22;10367;52.202;5.996;2023-04-20T08:23:52;8.30;99.90
20416;DHT22;10367;52.202;5.996;2023-04-20T08:26:21;8.30;99.90
20416;DHT22;10367;52.202;5.996;2023-04-20T08:28:53;8.40;99.90
20416;DHT22;10367;52.202;5.996;2023-04-20T08:31:22;8.50;99.90
20416;DHT22;10367;52.202;5.996;2023-04-20T08:33:53;8.60;99.90
20416;DHT22;10367;52.202;5.996;2023-04-20T08:36:22;8.70;99.90
20416;DHT22;10367;52.202;5.996;2023-04-20T08:38:57;8.80;99.90
20416;DHT22;10367;52.202;5.996;2023-04-20T08:41:25;8.90;99.90
20416;DHT22;10367;52.202;5.996;2023-04-20T08:43:54;9.00;99.90
20416;DHT22;10367;52.202;5.996;2023-04-20T08:46:23;9.20;99.90
20416;DHT22;10367;52.202;5.996;2023-04-20T08:48:56;9.20;99.90
20416;DHT22;10367;52.202;5.996;2023-04-20T08:51:28;9.10;99.90
20416;DHT22;10367;52.202;5.996;2023-04-20T08:54:02;9.20;99.90
20416;DHT22;10367;52.202;5.996;2023-04-20T08:56:33;9.30;99.90
20416;DHT22;10367;52.202;5.996;2023-04-20T08:59:05;9.40;99.90
20416;DHT22;10367;52.202;5.996;2023-04-20T09:01:37;9.80;99.90
20416;DHT22;10367;52.202;5.996;2023-04-20T09:04:16;10.20;99.90
20416;DHT22;10367;52.202;5.996;2023-04-20T09:06:47;10.20;99.90
20416;DHT22;10367;52.202;5.996;2023-04-20T09:09:16;10.30;99.90
20416;DHT22;10367;52.202;5.996;2023-04-20T09:11:46;10.30;99.90
20416;DHT22;10367;52.202;5.996;2023-04-20T09:14:15;9.90;99.90
20416;DHT22;10367;52.202;5.996;2023-04-20T09:16:49;9.80;99.90
20416;DHT22;10367;52.202;5.996;2023-04-20T09:19:23;9.60;99.90
20416;DHT22;10367;52.202;5.996;2023-04-20T09:21:53;9.50;99.90
20416;DHT22;10367;52.202;5.996;2023-04-20T09:24:29;9.20;99.90
20416;DHT22;10367;52.202;5.996;2023-04-20T09:26:59;9.20;99.90
20416;DHT22;10367;52.202;5.996;2023-04-20T09:29:28;9.40;99.90
20416;DHT22;10367;52.202;5.996;2023-04-20T09:31:58;9.50;99.90
20416;DHT22;10367;52.202;5.996;2023-04-20T09:34:28;9.50;99.90
20416;DHT22;10367;52.202;5.996;2023-04-20T09:36:58;9.50;99.90
20416;DHT22;10367;52.202;5.996;2023-04-20T09:39:26;9.40;99.90
20416;DHT22;10367;52.202;5.996;2023-04-20T09:42:02;9.50;99.90
20416;DHT22;10367;52.202;5.996;2023-04-20T09:44:37;9.70;99.90
20416;DHT22;10367;52.202;5.996;2023-04-20T09:47:06;9.90;99.90
20416;DHT22;10367;52.202;5.996;2023-04-20T09:49:37;10.20;99.90
20416;DHT22;10367;52.202;5.996;2023-04-20T09:52:06;10.70;99.90
20416;DHT22;10367;52.202;5.996;2023-04-20T09:54:36;10.90;99.90
20416;DHT22;10367;52.202;5.996;2023-04-20T09:57:05;10.90;99.90
20416;DHT22;10367;52.202;5.996;2023-04-20T09:59:34;10.70;99.90
20416;DHT22;10367;52.202;5.996;2023-04-20T10:02:07;10.70;99.90
20416;DHT22;10367;52.202;5.996;2023-04-20T10:04:49;10.80;99.90
20416;DHT22;10367;52.202;5.996;2023-04-20T10:07:23;10.80;99.90
20416;DHT22;10367;52.202;5.996;2023-04-20T10:10:06;10.60;99.90
20416;DHT22;10367;52.202;5.996;2023-04-20T10:12:46;10.30;99.90
20416;DHT22;10367;52.202;5.996;2023-04-20T10:15:16;10.10;99.90
20416;DHT22;10367;52.202;5.996;2023-04-20T10:17:45;10.00;99.90
20416;DHT22;10367;52.202;5.996;2023-04-20T10:20:23;10.10;99.90
20416;DHT22;10367;52.202;5.996;2023-04-20T10:22:53;10.30;99.90
20416;DHT22;10367;52.202;5.996;2023-04-20T10:25:23;10.40;99.90
20416;DHT22;10367;52.202;5.996;2023-04-20T10:27:55;10.50;99.90
20416;DHT22;10367;52.202;5.996;2023-04-20T10:30:26;10.80;99.90
20416;DHT22;10367;52.202;5.996;2023-04-20T10:33:06;11.20;99.90
20416;DHT22;10367;52.202;5.996;2023-04-20T10:35:46;11.40;99.90
20416;DHT22;10367;52.202;5.996;2023-04-20T10:38:15;11.80;99.90
20416;DHT22;10367;52.202;5.996;2023-04-20T10:40:46;12.40;99.90
20416;DHT22;10367;52.202;5.996;2023-04-20T10:43:18;13.00;99.90
20416;DHT22;10367;52.202;5.996;2023-04-20T10:45:48;12.90;99.90
20416;DHT22;10367;52.202;5.996;2023-04-20T10:48:17;12.80;99.90
20416;DHT22;10367;52.202;5.996;2023-04-20T10:50:51;12.50;99.90
20416;DHT22;10367;52.202;5.996;2023-04-20T10:53:20;12.00;99.90
20416;DHT22;10367;52.202;5.996;2023-04-20T10:55:57;11.80;99.90
20416;DHT22;10367;52.202;5.996;2023-04-20T10:58:26;11.70;99.90
20416;DHT22;10367;52.202;5.996;2023-04-20T11:00:59;11.80;99.90
20416;DHT22;10367;52.202;5.996;2023-04-20T11:03:31;11.70;99.90
20416;DHT22;10367;52.202;5.996;2023-04-20T11:06:02;11.80;99.90
20416;DHT22;10367;52.202;5.996;2023-04-20T11:08:41;11.70;99.90
20416;DHT22;10367;52.202;5.996;2023-04-20T11:11:20;12.00;99.90
20416;DHT22;10367;52.202;5.996;2023-04-20T11:13:51;12.40;99.90
20416;DHT22;10367;52.202;5.996;2023-04-20T11:16:22;12.20;99.90
20416;DHT22;10367;52.202;5.996;2023-04-20T11:19:03;11.80;99.90
20416;DHT22;10367;52.202;5.996;2023-04-20T11:21:37;11.60;99.90
20416;DHT22;10367;52.202;5.996;2023-04-20T11:24:17;11.60;99.90
20416;DHT22;10367;52.202;5.996;2023-04-20T11:26:48;11.80;99.90
20416;DHT22;10367;52.202;5.996;2023-04-20T11:29:30;11.80;99.90
20416;DHT22;10367;52.202;5.996;2023-04-20T11:32:02;11.30;99.90
20416;DHT22;10367;52.202;5.996;2023-04-20T11:34:34;11.10;99.90
20416;DHT22;10367;52.202;5.996;2023-04-20T11:37:08;11.00;99.90
20416;DHT22;10367;52.202;5.996;2023-04-20T11:39:39;11.10;99.90
20416;DHT22;10367;52.202;5.996;2023-04-20T11:42:08;11.30;99.90
20416;DHT22;10367;52.202;5.996;2023-04-20T11:44:38;11.20;99.90
20416;DHT22;10367;52.202;5.996;2023-04-20T11:47:09;11.10;99.90
20416;DHT22;10367;52.202;5.996;2023-04-20T11:49:41;11.20;99.90
20416;DHT22;10367;52.202;5.996;2023-04-20T11:52:11;11.10;99.90
20416;DHT22;10367;52.202;5.996;2023-04-20T11:54:40;11.20;99.90
20416;DHT22;10367;52.202;5.996;2023-04-20T11:57:12;11.20;99.90
20416;DHT22;10367;52.202;5.996;2023-04-20T11:59:45;11.20;99.90
20416;DHT22;10367;52.202;5.996;2023-04-20T12:02:17;11.30;99.90
20416;DHT22;10367;52.202;5.996;2023-04-20T12:04:46;11.50;99.90
20416;DHT22;10367;52.202;5.996;2023-04-20T12:07:19;11.60;99.90
20416;DHT22;10367;52.202;5.996;2023-04-20T12:09:49;11.70;99.90
20416;DHT22;10367;52.202;5.996;2023-04-20T12:12:19;11.70;99.90
20416;DHT22;10367;52.202;5.996;2023-04-20T12:14:48;11.50;99.90
20416;DHT22;10367;52.202;5.996;2023-04-20T12:17:19;11.30;99.90
20416;DHT22;10367;52.202;5.996;2023-04-20T12:19:48;11.20;99.90
20416;DHT22;10367;52.202;5.996;2023-04-20T12:22:19;11.10;99.90
20416;DHT22;10367;52.202;5.996;2023-04-20T12:24:48;11.10;99.90
20416;DHT22;10367;52.202;5.996;2023-04-20T12:27:17;11.00;99.90
20416;DHT22;10367;52.202;5.996;2023-04-20T12:29:46;11.20;99.90
20416;DHT22;10367;52.202;5.996;2023-04-20T12:32:15;11.50;99.90
20416;DHT22;10367;52.202;5.996;2023-04-20T12:34:45;11.80;99.90
20416;DHT22;10367;52.202;5.996;2023-04-20T12:37:13;12.20;99.90
20416;DHT22;10367;52.202;5.996;2023-04-20T12:39:43;12.60;99.90
20416;DHT22;10367;52.202;5.996;2023-04-20T12:42:12;12.70;99.90
20416;DHT22;10367;52.202;5.996;2023-04-20T12:44:41;12.30;99.90
20416;DHT22;10367;52.202;5.996;2023-04-20T12:47:10;12.00;99.90
20416;DHT22;10367;52.202;5.996;2023-04-20T12:49:40;12.00;99.90
20416;DHT22;10367;52.202;5.996;2023-04-20T12:52:08;12.10;99.90
20416;DHT22;10367;52.202;5.996;2023-04-20T12:54:37;12.40;99.90
20416;DHT22;10367;52.202;5.996;2023-04-20T12:57:09;12.30;99.90
20416;DHT22;10367;52.202;5.996;2023-04-20T12:59:43;12.20;99.90
20416;DHT22;10367;52.202;5.996;2023-04-20T13:02:14;12.00;99.80
20416;DHT22;10367;52.202;5.996;2023-04-20T13:04:43;11.90;99.90
20416;DHT22;10367;52.202;5.996;2023-04-20T13:07:13;11.90;99.90
20416;DHT22;10367;52.202;5.996;2023-04-20T13:09:41;11.90;99.90
20416;DHT22;10367;52.202;5.996;2023-04-20T13:12:12;11.70;99.90
20416;DHT22;10367;52.202;5.996;2023-04-20T13:14:41;11.60;99.90
20416;DHT22;10367;52.202;5.996;2023-04-20T13:17:10;11.50;99.90
20416;DHT22;10367;52.202;5.996;2023-04-20T13:19:38;11.90;99.90
20416;DHT22;10367;52.202;5.996;2023-04-20T13:22:07;12.30;99.90
20416;DHT22;10367;52.202;5.996;2023-04-20T13:24:39;12.40;99.90
20416;DHT22;10367;52.202;5.996;2023-04-20T13:27:08;12.30;99.80
20416;DHT22;10367;52.202;5.996;2023-04-20T13:29:38;12.30;99.60
20416;DHT22;10367;52.202;5.996;2023-04-20T13:32:08;12.20;99.80
20416;DHT22;10367;52.202;5.996;2023-04-20T13:34:37;12.30;99.90
20416;DHT22;10367;52.202;5.996;2023-04-20T13:37:08;12.30;99.90
20416;DHT22;10367;52.202;5.996;2023-04-20T13:39:37;12.20;99.90
20416;DHT22;10367;52.202;5.996;2023-04-20T13:42:06;12.20;99.90
20416;DHT22;10367;52.202;5.996;2023-04-20T13:44:34;12.10;99.80
20416;DHT22;10367;52.202;5.996;2023-04-20T13:47:05;12.00;99.90
20416;DHT22;10367;52.202;5.996;2023-04-20T13:49:33;12.50;99.70
20416;DHT22;10367;52.202;5.996;2023-04-20T13:52:02;12.90;99.10
20416;DHT22;10367;52.202;5.996;2023-04-20T13:54:31;13.10;98.80
20416;DHT22;10367;52.202;5.996;2023-04-20T13:56:59;13.40;98.70
20416;DHT22;10367;52.202;5.996;2023-04-20T13:59:28;13.50;98.50
20416;DHT22;10367;52.202;5.996;2023-04-20T14:01:57;13.10;98.20
20416;DHT22;10367;52.202;5.996;2023-04-20T14:04:28;12.90;98.50
20416;DHT22;10367;52.202;5.996;2023-04-20T14:06:57;12.60;98.50
20416;DHT22;10367;52.202;5.996;2023-04-20T14:09:25;12.30;98.90
20416;DHT22;10367;52.202;5.996;2023-04-20T14:11:54;12.40;99.50
20416;DHT22;10367;52.202;5.996;2023-04-20T14:14:23;12.50;99.10
20416;DHT22;10367;52.202;5.996;2023-04-20T14:16:52;12.50;98.80
20416;DHT22;10367;52.202;5.996;2023-04-20T14:19:21;12.60;98.80
20416;DHT22;10367;52.202;5.996;2023-04-20T14:21:51;12.90;97.90
20416;DHT22;10367;52.202;5.996;2023-04-20T14:24:21;13.30;97.40
20416;DHT22;10367;52.202;5.996;2023-04-20T14:26:50;13.80;97.10
20416;DHT22;10367;52.202;5.996;2023-04-20T14:29:19;13.80;96.30
20416;DHT22;10367;52.202;5.996;2023-04-20T14:31:48;13.90;96.20
20416;DHT22;10367;52.202;5.996;2023-04-20T14:34:16;14.10;95.60
20416;DHT22;10367;52.202;5.996;2023-04-20T14:36:46;14.30;95.50
20416;DHT22;10367;52.202;5.996;2023-04-20T14:39:18;14.50;95.30
20416;DHT22;10367;52.202;5.996;2023-04-20T14:41:46;14.90;94.40
20416;DHT22;10367;52.202;5.996;2023-04-20T14:44:15;15.10;93.40
20416;DHT22;10367;52.202;5.996;2023-04-20T14:46:44;14.80;93.70
20416;DHT22;10367;52.202;5.996;2023-04-20T14:49:12;14.80;93.90
20416;DHT22;10367;52.202;5.996;2023-04-20T14:51:41;15.00;93.70
20416;DHT22;10367;52.202;5.996;2023-04-20T14:54:10;15.00;93.80
20416;DHT22;10367;52.202;5.996;2023-04-20T14:56:40;14.40;93.60
20416;DHT22;10367;52.202;5.996;2023-04-20T14:59:09;14.30;93.20
20416;DHT22;10367;52.202;5.996;2023-04-20T15:01:37;14.10;92.90
20416;DHT22;10367;52.202;5.996;2023-04-20T15:04:25;14.20;92.70
20416;DHT22;10367;52.202;5.996;2023-04-20T15:06:54;14.60;92.20
20416;DHT22;10367;52.202;5.996;2023-04-20T15:09:22;14.70;91.70
20416;DHT22;10367;52.202;5.996;2023-04-20T15:11:52;14.60;92.00
20416;DHT22;10367;52.202;5.996;2023-04-20T15:14:21;14.30;92.00
20416;DHT22;10367;52.202;5.996;2023-04-20T15:16:51;13.90;92.60
20416;DHT22;10367;52.202;5.996;2023-04-20T15:19:20;13.70;92.30
20416;DHT22;10367;52.202;5.996;2023-04-20T15:21:48;13.10;92.40
20416;DHT22;10367;52.202;5.996;2023-04-20T15:24:17;13.10;92.80
20416;DHT22;10367;52.202;5.996;2023-04-20T15:26:47;13.40;92.80
20416;DHT22;10367;52.202;5.996;2023-04-20T15:29:17;13.70;91.60
20416;DHT22;10367;52.202;5.996;2023-04-20T15:31:45;13.70;91.50
20416;DHT22;10367;52.202;5.996;2023-04-20T15:34:14;13.80;91.50
20416;DHT22;10367;52.202;5.996;2023-04-20T15:36:44;13.90;90.90
20416;DHT22;10367;52.202;5.996;2023-04-20T15:39:12;13.70;91.00
20416;DHT22;10367;52.202;5.996;2023-04-20T15:41:41;13.80;91.10
20416;DHT22;10367;52.202;5.996;2023-04-20T15:44:09;14.00;90.90
20416;DHT22;10367;52.202;5.996;2023-04-20T15:46:39;13.90;90.90
20416;DHT22;10367;52.202;5.996;2023-04-20T15:49:08;13.90;91.00
20416;DHT22;10367;52.202;5.996;2023-04-20T15:51:37;13.90;91.10
20416;DHT22;10367;52.202;5.996;2023-04-20T15:54:05;13.70;91.30
20416;DHT22;10367;52.202;5.996;2023-04-20T15:56:34;13.70;91.40
20416;DHT22;10367;52.202;5.996;2023-04-20T15:59:03;13.60;91.50
20416;DHT22;10367;52.202;5.996;2023-04-20T16:01:32;13.60;90.90
20416;DHT22;10367;52.202;5.996;2023-04-20T16:04:03;13.40;91.00